createdAt,value
2018-04-26T00:00:01.760Z,97618.50
2018-04-26T00:01:06.309Z,97605.19
2018-04-26T00:02:10.843Z,97604.09
2018-04-26T00:03:15.410Z,97599.17
2018-04-26T00:04:19.967Z,97604.36
2018-04-26T00:05:24.541Z,97605.84
2018-04-26T00:06:29.466Z,97594.59
2018-04-26T00:07:34.160Z,97603.80
2018-04-26T00:08:38.781Z,97599.84
2018-04-26T00:09:43.379Z,97594.67
2018-04-26T00:10:47.945Z,97597.55
2018-04-26T00:11:52.615Z,97591.94
2018-04-26T00:12:57.353Z,97597.92
2018-04-26T00:14:02.094Z,97593.48
2018-04-26T00:15:06.564Z,97593.84
2018-04-26T00:16:11.119Z,97589.23
2018-04-26T00:17:15.558Z,97591.41
2018-04-26T00:18:20.053Z,97588.91
2018-04-26T00:19:24.825Z,97593.72
2018-04-26T00:20:29.282Z,97591.58
2018-04-26T00:21:33.773Z,97590.37
2018-04-26T00:22:38.230Z,97597.63
2018-04-26T00:23:42.667Z,97589.36
2018-04-26T00:24:47.120Z,97590.00
2018-04-26T00:25:51.869Z,97585.23
2018-04-26T00:26:56.311Z,97589.39
2018-04-26T00:28:06.109Z,97584.67
2018-04-26T00:29:10.753Z,97586.41
2018-04-26T00:30:15.436Z,97591.33
2018-04-26T00:31:19.975Z,97586.12
2018-04-26T00:32:24.642Z,97595.73
2018-04-26T00:33:29.046Z,97594.84
2018-04-26T00:34:33.552Z,97588.70
2018-04-26T00:35:38.061Z,97596.73
2018-04-26T00:36:42.576Z,97594.50
2018-04-26T00:37:47.036Z,97605.20
2018-04-26T00:38:51.801Z,97595.48
2018-04-26T00:39:56.264Z,97597.61
2018-04-26T00:41:00.745Z,97593.29
2018-04-26T00:42:05.275Z,97590.82
2018-04-26T00:43:09.762Z,97598.25
2018-04-26T00:44:14.160Z,97597.61
2018-04-26T00:45:18.811Z,97592.95
2018-04-26T00:46:23.219Z,97588.23
2018-04-26T00:47:27.617Z,97593.77
2018-04-26T00:48:32.086Z,97598.98
2018-04-26T00:49:36.391Z,97591.14
2018-04-26T00:50:40.712Z,97591.99
2018-04-26T00:51:50.639Z,97591.90
2018-04-26T00:52:54.990Z,97585.72
2018-04-26T00:53:59.470Z,97594.61
2018-04-26T00:55:03.936Z,97590.69
2018-04-26T00:56:08.419Z,97587.39
2018-04-26T00:57:12.929Z,97588.22
2018-04-26T00:58:17.691Z,97585.03
2018-04-26T00:59:22.222Z,97590.84
2018-04-26T01:00:26.694Z,97583.38
2018-04-26T01:01:31.169Z,97584.08
2018-04-26T01:02:35.609Z,97583.22
2018-04-26T01:03:40.024Z,97584.74
2018-04-26T01:04:44.683Z,97582.08
2018-04-26T01:05:49.220Z,97587.48
2018-04-26T01:06:53.978Z,97583.73
2018-04-26T01:07:58.464Z,97584.74
2018-04-26T01:09:03.433Z,97585.55
2018-04-26T01:10:08.271Z,97586.63
2018-04-26T01:11:13.061Z,97572.59
2018-04-26T01:12:17.520Z,97584.45
2018-04-26T01:13:22.009Z,97579.66
2018-04-26T01:14:26.530Z,97591.61
2018-04-26T01:15:30.980Z,97584.87
2018-04-26T01:16:35.453Z,97586.46
2018-04-26T01:17:40.232Z,97586.54
2018-04-26T01:18:44.871Z,97586.58
2018-04-26T01:19:49.430Z,97587.36
2018-04-26T01:20:53.983Z,97585.60
2018-04-26T01:21:58.568Z,97575.41
2018-04-26T01:23:03.120Z,97566.44
2018-04-26T01:24:07.993Z,97585.78
2018-04-26T01:25:12.561Z,97581.88
2018-04-26T01:26:17.118Z,97591.27
2018-04-26T01:27:21.688Z,97579.59
2018-04-26T01:28:26.272Z,97583.57
2018-04-26T01:29:30.782Z,97598.20
2018-04-26T01:30:35.554Z,97595.97
2018-04-26T01:31:40.125Z,97586.92
2018-04-26T01:32:44.732Z,97588.20
2018-04-26T01:33:49.244Z,97583.36
2018-04-26T01:34:53.717Z,97589.97
2018-04-26T01:35:58.191Z,97590.97
2018-04-26T01:37:08.090Z,97589.47
2018-04-26T01:38:13.144Z,97585.23
2018-04-26T01:39:17.625Z,97583.44
2018-04-26T01:40:22.090Z,97591.16
2018-04-26T01:41:26.706Z,97579.30
2018-04-26T01:42:31.265Z,97589.37
2018-04-26T01:43:35.825Z,97591.98
2018-04-26T01:44:40.352Z,97584.48
2018-04-26T01:45:44.874Z,97597.27
2018-04-26T01:46:49.394Z,97598.30
2018-04-26T01:47:53.837Z,97600.80
2018-04-26T01:48:58.342Z,97594.96
2018-04-26T01:50:03.089Z,97596.09
2018-04-26T01:51:07.575Z,97593.81
2018-04-26T01:52:12.061Z,97593.56
2018-04-26T01:53:16.525Z,97595.66
2018-04-26T01:54:20.995Z,97590.44
2018-04-26T01:55:25.520Z,97585.41
2018-04-26T01:56:30.124Z,97591.80
2018-04-26T01:57:34.427Z,97591.87
2018-04-26T01:58:38.788Z,97594.36
2018-04-26T01:59:43.094Z,97590.00
2018-04-26T02:00:47.432Z,97585.99
2018-04-26T02:01:51.715Z,97581.88
2018-04-26T02:02:56.304Z,97582.69
2018-04-26T02:04:00.757Z,97585.00
2018-04-26T02:05:05.222Z,97584.08
2018-04-26T02:06:09.737Z,97591.36
2018-04-26T02:07:14.289Z,97581.28
2018-04-26T02:08:18.930Z,97580.11
2018-04-26T02:09:23.794Z,97576.69
2018-04-26T02:10:28.318Z,97578.16
2018-04-26T02:11:33.252Z,97592.16
2018-04-26T02:12:37.688Z,97584.01
2018-04-26T02:13:42.182Z,97581.55
2018-04-26T02:14:46.675Z,97585.22
2018-04-26T02:15:51.463Z,97577.94
2018-04-26T02:16:55.876Z,97581.14
2018-04-26T02:18:00.236Z,97582.06
2018-04-26T02:19:04.546Z,97584.56
2018-04-26T02:20:08.886Z,97587.98
2018-04-26T02:21:13.182Z,97588.49
2018-04-26T02:22:18.011Z,97588.60
2018-04-26T02:23:22.536Z,97583.23
2018-04-26T02:24:27.004Z,97592.80
2018-04-26T02:25:31.387Z,97590.77
2018-04-26T02:26:35.848Z,97594.12
2018-04-26T02:27:40.309Z,97586.66
2018-04-26T02:28:45.094Z,97595.18
2018-04-26T02:29:50.040Z,97586.31
2018-04-26T02:30:54.557Z,97590.44
2018-04-26T02:31:59.098Z,97593.85
2018-04-26T02:33:03.566Z,97596.98
2018-04-26T02:34:08.156Z,97599.11
2018-04-26T02:35:13.328Z,97602.53
2018-04-26T02:36:17.822Z,97600.28
2018-04-26T02:37:22.331Z,97596.83
2018-04-26T02:38:26.841Z,97600.05
2018-04-26T02:39:31.321Z,97600.20
2018-04-26T02:40:35.647Z,97599.00
2018-04-26T02:41:40.270Z,97595.20
2018-04-26T02:42:44.806Z,97597.77
2018-04-26T02:43:49.271Z,97594.57
2018-04-26T02:44:53.839Z,97588.17
2018-04-26T02:45:58.297Z,97593.06
2018-04-26T02:47:02.784Z,97594.18
2018-04-26T02:48:07.593Z,97593.85
2018-04-26T02:49:12.031Z,97594.39
2018-04-26T02:50:16.505Z,97596.17
2018-04-26T02:51:21.029Z,97601.27
2018-04-26T02:52:25.522Z,97597.78
2018-04-26T02:53:30.013Z,97604.84
2018-04-26T02:54:34.902Z,97591.39
2018-04-26T02:55:39.403Z,97599.44
2018-04-26T02:56:44.046Z,97588.64
2018-04-26T02:57:48.579Z,97599.77
2018-04-26T02:58:53.033Z,97597.32
2018-04-26T02:59:57.624Z,97602.67
2018-04-26T03:01:02.339Z,97598.70
2018-04-26T03:02:06.846Z,97588.20
2018-04-26T03:03:11.317Z,97599.92
2018-04-26T03:04:15.830Z,97598.23
2018-04-26T03:05:20.401Z,97594.92
2018-04-26T03:06:24.934Z,97592.79
2018-04-26T03:07:29.852Z,97589.62
2018-04-26T03:08:34.471Z,97589.22
2018-04-26T03:09:39.038Z,97586.81
2018-04-26T03:10:43.670Z,97593.53
2018-04-26T03:11:48.230Z,97586.47
2018-04-26T03:12:52.775Z,97597.80
2018-04-26T03:13:57.590Z,97598.93
2018-04-26T03:15:02.126Z,97593.78
2018-04-26T03:16:06.751Z,97589.59
2018-04-26T03:17:11.980Z,97591.36
2018-04-26T03:18:16.590Z,97589.48
2018-04-26T03:19:21.179Z,97595.25
2018-04-26T03:20:26.033Z,97596.25
2018-04-26T03:21:30.610Z,97605.18
2018-04-26T03:22:35.196Z,97592.09
2018-04-26T03:23:39.851Z,97580.47
2018-04-26T03:24:44.452Z,97589.62
2018-04-26T03:25:48.974Z,97588.27
2018-04-26T03:26:53.894Z,97595.84
2018-04-26T03:27:58.533Z,97591.06
2018-04-26T03:29:03.111Z,97581.41
2018-04-26T03:30:07.685Z,97579.30
2018-04-26T03:31:12.277Z,97578.43
2018-04-26T03:32:16.746Z,97589.74
2018-04-26T03:33:21.539Z,97592.38
2018-04-26T03:34:26.053Z,97587.90
2018-04-26T03:35:30.534Z,97591.87
2018-04-26T03:36:35.132Z,97587.87
2018-04-26T03:37:39.491Z,97591.70
2018-04-26T03:38:43.891Z,97595.97
2018-04-26T03:39:48.549Z,97588.23
2018-04-26T03:40:52.981Z,97587.50
2018-04-26T03:41:57.453Z,97595.30
2018-04-26T03:43:01.916Z,97596.18
2018-04-26T03:44:06.414Z,97591.99
2018-04-26T03:45:10.921Z,97588.50
2018-04-26T03:46:15.712Z,97594.27
2018-04-26T03:47:20.188Z,97596.32
2018-04-26T03:48:24.700Z,97586.47
2018-04-26T03:49:29.290Z,97592.73
2018-04-26T03:50:33.634Z,97605.27
2018-04-26T03:51:38.121Z,97592.83
2018-04-26T03:52:42.894Z,97590.89
2018-04-26T03:53:47.415Z,97593.83
2018-04-26T03:54:51.938Z,97591.55
2018-04-26T03:55:56.409Z,97599.23
2018-04-26T03:57:00.871Z,97604.81
2018-04-26T03:58:05.340Z,97599.53
2018-04-26T03:59:09.943Z,97603.42
2018-04-26T04:02:21.682Z,97605.11
2018-04-26T04:03:31.368Z,97597.55
2018-04-26T04:04:41.489Z,97600.22
2018-04-26T04:05:50.432Z,97604.41
2018-04-26T04:06:54.974Z,97618.02
2018-04-26T04:07:59.466Z,97596.77
2018-04-26T04:09:04.009Z,97597.76
2018-04-26T04:10:08.774Z,97610.11
2018-04-26T04:11:13.598Z,97599.67
2018-04-26T04:12:18.132Z,97603.28
2018-04-26T04:13:22.623Z,97606.28
2018-04-26T04:14:27.016Z,97601.88
2018-04-26T04:15:32.073Z,97600.30
2018-04-26T04:16:36.580Z,97610.33
2018-04-26T04:17:41.463Z,97607.47
2018-04-26T04:18:45.849Z,97600.52
2018-04-26T04:19:50.863Z,97609.16
2018-04-26T04:20:55.223Z,97608.09
2018-04-26T04:21:59.558Z,97611.58
2018-04-26T04:23:04.063Z,97619.27
2018-04-26T04:24:09.076Z,97614.08
2018-04-26T04:25:14.709Z,97606.62
2018-04-26T04:26:19.240Z,97606.22
2018-04-26T04:27:24.384Z,97618.71
2018-04-26T04:28:28.881Z,97619.41
2018-04-26T04:29:33.496Z,97613.48
2018-04-26T04:30:37.940Z,97613.94
2018-04-26T04:31:42.570Z,97616.47
2018-04-26T04:32:47.044Z,97617.64
2018-04-26T04:33:51.494Z,97612.17
2018-04-26T04:34:56.678Z,97620.06
2018-04-26T04:36:01.424Z,97603.02
2018-04-26T04:37:06.021Z,97606.91
2018-04-26T04:38:10.678Z,97618.49
2018-04-26T04:39:15.216Z,97610.52
2018-04-26T04:41:22.838Z,97617.24
2018-04-26T04:42:27.571Z,97625.47
2018-04-26T04:43:32.336Z,97616.77
2018-04-26T04:44:36.952Z,97613.78
2018-04-26T04:45:41.794Z,97616.84
2018-04-26T04:46:47.146Z,97609.11
2018-04-26T04:47:51.955Z,97626.76
2018-04-26T04:48:56.424Z,97622.05
2018-04-26T04:50:00.937Z,97626.69
2018-04-26T04:51:05.474Z,97619.11
2018-04-26T04:52:10.087Z,97619.34
2018-04-26T04:53:14.653Z,97621.80
2018-04-26T04:54:19.226Z,97622.79
2018-04-26T04:55:23.659Z,97621.94
2018-04-26T04:56:28.375Z,97628.93
2018-04-26T04:57:32.956Z,97627.23
2018-04-26T04:58:37.749Z,97620.00
2018-04-26T04:59:42.581Z,97623.20
2018-04-26T05:00:47.115Z,97615.80
2018-04-26T05:01:51.578Z,97622.05
2018-04-26T05:02:56.744Z,97626.91
2018-04-26T05:04:01.280Z,97629.73
2018-04-26T05:05:05.788Z,97615.59
2018-04-26T05:06:13.813Z,97630.11
2018-04-26T05:07:18.356Z,97630.91
2018-04-26T05:08:22.974Z,97629.92
2018-04-26T05:09:27.569Z,97639.22
2018-04-26T05:10:32.097Z,97638.78
2018-04-26T05:11:37.015Z,97647.64
2018-04-26T05:12:42.580Z,97637.45
2018-04-26T05:13:47.255Z,97631.83
2018-04-26T05:14:51.850Z,97632.75
2018-04-26T05:15:56.462Z,97629.30
2018-04-26T05:17:01.288Z,97634.22
2018-04-26T05:18:06.247Z,97635.69
2018-04-26T05:19:10.881Z,97647.20
2018-04-26T05:20:15.994Z,97647.70
2018-04-26T05:21:20.637Z,97646.09
2018-04-26T05:22:25.288Z,97644.42
2018-04-26T05:23:30.717Z,97649.56
2018-04-26T05:24:35.961Z,97653.58
2018-04-26T05:25:40.572Z,97643.88
2018-04-26T05:26:45.146Z,97600.84
2018-04-26T05:27:49.629Z,97648.41
2018-04-26T05:28:54.224Z,97644.03
2018-04-26T05:29:58.783Z,97656.79
2018-04-26T05:31:03.783Z,97653.04
2018-04-26T05:32:08.373Z,97644.63
2018-04-26T05:33:12.945Z,97638.23
2018-04-26T05:34:17.506Z,97657.16
2018-04-26T05:35:22.289Z,97665.42
2018-04-26T05:36:26.869Z,97666.30
2018-04-26T05:37:31.952Z,97664.48
2018-04-26T05:38:36.536Z,97668.81
2018-04-26T05:39:41.171Z,97666.45
2018-04-26T05:40:45.774Z,97662.23
2018-04-26T05:41:50.353Z,97672.48
2018-04-26T05:42:55.786Z,97677.63
2018-04-26T05:44:00.297Z,97677.05
2018-04-26T05:45:04.921Z,97676.75
2018-04-26T05:46:09.964Z,97674.00
2018-04-26T05:47:14.467Z,97685.84
2018-04-26T05:48:19.072Z,97688.78
2018-04-26T05:49:23.966Z,97684.80
2018-04-26T05:50:28.531Z,97688.67
2018-04-26T05:51:33.051Z,97689.95
2018-04-26T05:52:37.672Z,97692.20
2018-04-26T05:53:42.220Z,97692.71
2018-04-26T05:54:46.793Z,97686.97
2018-04-26T05:55:51.728Z,97690.36
2018-04-26T05:56:56.298Z,97689.48
2018-04-26T05:58:00.834Z,97695.77
2018-04-26T05:59:05.457Z,97693.55
2018-04-26T06:00:10.081Z,97696.83
2018-04-26T06:01:14.719Z,97683.52
2018-04-26T06:02:19.357Z,97681.75
2018-04-26T06:03:23.997Z,97695.45
2018-04-26T06:04:28.659Z,97679.98
2018-04-26T06:05:33.251Z,97704.72
2018-04-26T06:06:37.861Z,97703.07
2018-04-26T06:07:42.966Z,97697.41
2018-04-26T06:08:47.643Z,97702.09
2018-04-26T06:09:52.065Z,97704.92
2018-04-26T06:10:56.457Z,97707.23
2018-04-26T06:12:00.894Z,97713.20
2018-04-26T06:13:05.345Z,97709.51
2018-04-26T06:14:10.210Z,97714.86
2018-04-26T06:15:14.878Z,97717.30
2018-04-26T06:16:19.361Z,97720.14
2018-04-26T06:17:23.786Z,97719.40
2018-04-26T06:18:28.267Z,97726.95
2018-04-26T06:19:32.878Z,97729.36
2018-04-26T06:20:37.807Z,97734.27
2018-04-26T06:21:42.430Z,97727.53
2018-04-26T06:22:47.658Z,97721.70
2018-04-26T06:23:52.514Z,97723.86
2018-04-26T06:25:00.337Z,97732.31
2018-04-26T06:26:05.667Z,97730.63
2018-04-26T06:27:11.327Z,97734.41
2018-04-26T06:28:15.810Z,97732.27
2018-04-26T06:29:20.468Z,97736.25
2018-04-26T06:30:25.153Z,97747.70
2018-04-26T06:31:29.705Z,97738.45
2018-04-26T06:32:34.302Z,97732.86
2018-04-26T06:33:39.634Z,97747.11
2018-04-26T06:34:44.325Z,97740.30
2018-04-26T06:35:48.793Z,97730.61
2018-04-26T06:36:53.356Z,97737.24
2018-04-26T06:37:57.875Z,97719.30
2018-04-26T06:39:02.577Z,97743.79
2018-04-26T06:40:07.333Z,97753.43
2018-04-26T06:41:11.839Z,97737.98
2018-04-26T06:42:16.365Z,97754.03
2018-04-26T06:43:20.862Z,97739.48
2018-04-26T06:44:25.350Z,97732.55
2018-04-26T06:45:29.867Z,97745.86
2018-04-26T06:46:34.755Z,97733.40
2018-04-26T06:47:39.284Z,97723.80
2018-04-26T06:48:43.778Z,97731.11
2018-04-26T06:49:48.312Z,97729.54
2018-04-26T06:50:53.243Z,97738.67
2018-04-26T06:51:58.354Z,97745.84
2018-04-26T06:53:03.218Z,97695.10
2018-04-26T06:54:08.009Z,97738.56
2018-04-26T06:55:12.591Z,97739.81
2018-04-26T06:56:17.130Z,97748.70
2018-04-26T06:57:21.614Z,97725.00
2018-04-26T06:58:26.137Z,97753.55
2018-04-26T06:59:31.010Z,97746.19
2018-04-26T07:00:35.872Z,97752.40
2018-04-26T07:01:40.944Z,97741.89
2018-04-26T07:02:45.420Z,97755.76
2018-04-26T07:03:49.932Z,97744.19
2018-04-26T07:04:54.525Z,97748.64
2018-04-26T07:05:59.496Z,97735.84
2018-04-26T07:07:04.104Z,97757.74
2018-04-26T07:08:08.633Z,97770.05
2018-04-26T07:09:13.165Z,97772.03
2018-04-26T07:10:17.715Z,97769.95
2018-04-26T07:11:22.422Z,97769.97
2018-04-26T07:12:27.273Z,97772.71
2018-04-26T07:13:31.789Z,97777.86
2018-04-26T07:14:36.259Z,97766.25
2018-04-26T07:15:40.871Z,97774.20
2018-04-26T07:16:45.573Z,97774.14
2018-04-26T07:17:50.167Z,97773.71
2018-04-26T07:18:55.896Z,97769.25
2018-04-26T07:20:00.438Z,97771.21
2018-04-26T07:21:04.809Z,97772.20
2018-04-26T07:22:09.356Z,97779.38
2018-04-26T07:23:13.935Z,97785.45
2018-04-26T07:24:18.469Z,97785.00
2018-04-26T07:25:23.357Z,97759.84
2018-04-26T07:26:27.982Z,97743.25
2018-04-26T07:27:32.503Z,97765.24
2018-04-26T07:28:36.978Z,97765.20
2018-04-26T07:29:41.381Z,97761.20
2018-04-26T07:30:45.859Z,97761.41
2018-04-26T07:31:50.557Z,97769.14
2018-04-26T07:32:55.038Z,97766.16
2018-04-26T07:33:59.557Z,97766.79
2018-04-26T07:35:04.098Z,97770.58
2018-04-26T07:36:08.618Z,97767.99
2018-04-26T07:37:12.998Z,97769.28
2018-04-26T07:38:17.992Z,97771.61
2018-04-26T07:39:22.930Z,97773.00
2018-04-26T07:40:27.709Z,97770.13
2018-04-26T07:41:32.405Z,97766.86
2018-04-26T07:42:36.944Z,97768.51
2018-04-26T07:43:41.614Z,97772.45
2018-04-26T07:44:46.728Z,97761.23
2018-04-26T07:45:51.321Z,97743.95
2018-04-26T07:46:55.775Z,97756.48
2018-04-26T07:48:00.326Z,97757.02
2018-04-26T07:49:05.043Z,97769.25
2018-04-26T07:50:09.520Z,97749.23
2018-04-26T07:51:14.351Z,97775.01
2018-04-26T07:52:18.958Z,97766.80
2018-04-26T07:53:23.607Z,97765.71
2018-04-26T07:54:28.269Z,97759.20
2018-04-26T07:55:32.857Z,97767.13
2018-04-26T07:56:37.462Z,97772.57
2018-04-26T07:57:42.476Z,97753.03
2018-04-26T07:58:47.146Z,97767.02
2018-04-26T07:59:51.773Z,97759.43
2018-04-26T08:00:56.538Z,97760.69
2018-04-26T08:02:01.243Z,97754.19
2018-04-26T08:03:05.893Z,97781.85
2018-04-26T08:04:12.687Z,97788.25
2018-04-26T08:05:17.650Z,97783.61
2018-04-26T08:06:22.451Z,97757.49
2018-04-26T08:07:28.875Z,97751.89
2018-04-26T08:08:33.503Z,97762.69
2018-04-26T08:09:38.494Z,97750.81
2018-04-26T08:10:43.053Z,97722.98
2018-04-26T08:11:47.682Z,97765.59
2018-04-26T08:12:52.339Z,97772.09
2018-04-26T08:13:57.010Z,97790.31
2018-04-26T08:15:01.697Z,97779.57
2018-04-26T08:16:06.594Z,97775.52
2018-04-26T08:17:11.005Z,97770.61
2018-04-26T08:18:15.612Z,97785.16
2018-04-26T08:19:20.145Z,97769.10
2018-04-26T08:20:24.653Z,97796.34
2018-04-26T08:21:29.274Z,97815.11
2018-04-26T08:22:34.129Z,97810.50
2018-04-26T08:23:38.981Z,97820.00
2018-04-26T08:24:43.462Z,97814.74
2018-04-26T08:25:47.918Z,97810.39
2018-04-26T08:26:54.655Z,97814.52
2018-04-26T08:27:59.184Z,97816.47
2018-04-26T08:29:04.182Z,97808.11
2018-04-26T08:30:08.848Z,97821.62
2018-04-26T08:31:13.510Z,97822.90
2018-04-26T08:32:18.010Z,97817.94
2018-04-26T08:33:22.522Z,97822.72
2018-04-26T08:34:27.065Z,97826.36
2018-04-26T08:35:31.994Z,97832.19
2018-04-26T08:36:36.542Z,97821.58
2018-04-26T08:37:41.017Z,97838.14
2018-04-26T08:38:45.578Z,97844.19
2018-04-26T08:39:50.112Z,97830.34
2018-04-26T08:40:54.623Z,97839.55
2018-04-26T08:41:59.528Z,97842.64
2018-04-26T08:43:04.184Z,97841.35
2018-04-26T08:44:08.672Z,97839.58
2018-04-26T08:45:13.168Z,97831.30
2018-04-26T08:46:17.737Z,97825.41
2018-04-26T08:47:22.314Z,97830.45
2018-04-26T08:48:27.493Z,97828.97
2018-04-26T08:49:31.988Z,97831.48
2018-04-26T08:50:36.583Z,97843.98
2018-04-26T08:51:42.095Z,97840.70
2018-04-26T08:52:46.636Z,97845.13
2018-04-26T08:53:51.228Z,97847.72
2018-04-26T08:54:56.202Z,97848.34
2018-04-26T08:56:00.717Z,97847.58
2018-04-26T08:57:05.297Z,97842.51
2018-04-26T08:58:09.885Z,97850.83
2018-04-26T08:59:14.464Z,97849.91
2018-04-26T09:00:19.090Z,97830.95
2018-04-26T09:01:24.045Z,97832.63
2018-04-26T09:02:28.794Z,97829.39
2018-04-26T09:03:33.282Z,97837.45
2018-04-26T09:04:37.831Z,97833.23
2018-04-26T09:05:42.376Z,97836.42
2018-04-26T09:06:47.309Z,97846.91
2018-04-26T09:07:52.506Z,97829.80
2018-04-26T09:08:57.229Z,97839.74
2018-04-26T09:10:01.848Z,97843.16
2018-04-26T09:11:06.751Z,97850.83
2018-04-26T09:12:11.373Z,97851.27
2018-04-26T09:13:15.978Z,97847.61
2018-04-26T09:14:20.829Z,97846.81
2018-04-26T09:15:25.280Z,97851.41
2018-04-26T09:16:29.923Z,97850.66
2018-04-26T09:17:34.498Z,97852.92
2018-04-26T09:18:39.042Z,97855.30
2018-04-26T09:19:43.687Z,97838.23
2018-04-26T09:20:48.622Z,97839.89
2018-04-26T09:21:53.280Z,97850.52
2018-04-26T09:22:57.885Z,97845.89
2018-04-26T09:24:02.293Z,97855.02
2018-04-26T09:25:06.741Z,97834.39
2018-04-26T09:26:11.247Z,97851.82
2018-04-26T09:27:16.351Z,97841.88
2018-04-26T09:28:20.843Z,97842.23
2018-04-26T09:29:25.537Z,97844.73
2018-04-26T09:30:29.968Z,97844.75
2018-04-26T09:31:34.385Z,97846.91
2018-04-26T09:32:38.865Z,97852.00
2018-04-26T09:33:43.760Z,97858.18
2018-04-26T09:34:48.150Z,97854.98
2018-04-26T09:35:53.344Z,97845.71
2018-04-26T09:36:57.853Z,97845.48
2018-04-26T09:38:02.595Z,97847.67
2018-04-26T09:39:07.581Z,97863.98
2018-04-26T09:40:12.125Z,97861.01
2018-04-26T09:41:16.607Z,97841.88
2018-04-26T09:42:21.112Z,97842.83
2018-04-26T09:43:25.832Z,97857.71
2018-04-26T09:44:30.357Z,97846.84
2018-04-26T09:45:35.377Z,97818.67
2018-04-26T09:46:39.897Z,97873.17
2018-04-26T09:47:44.526Z,97853.48
2018-04-26T09:48:49.091Z,97854.08
2018-04-26T09:49:53.648Z,97863.03
2018-04-26T09:50:58.603Z,97856.11
2018-04-26T09:52:03.617Z,97843.48
2018-04-26T09:53:08.176Z,97860.81
2018-04-26T09:54:13.383Z,97872.17
2018-04-26T09:55:18.200Z,97870.02
2018-04-26T09:56:22.729Z,97867.69
2018-04-26T09:57:27.159Z,97868.95
2018-04-26T09:58:32.253Z,97860.38
2018-04-26T09:59:36.890Z,97866.32
2018-04-26T10:00:43.147Z,97869.14
2018-04-26T10:01:48.042Z,97865.82
2018-04-26T10:02:53.944Z,97888.88
2018-04-26T10:04:02.586Z,97886.69
2018-04-26T10:05:11.650Z,97865.02
2018-04-26T10:06:20.322Z,97851.45
2018-04-26T10:07:24.849Z,97856.64
2018-04-26T10:08:29.482Z,97862.86
2018-04-26T10:09:33.989Z,97861.73
2018-04-26T10:10:39.081Z,97872.02
2018-04-26T10:11:43.616Z,97876.14
2018-04-26T10:12:48.681Z,97850.77
2018-04-26T10:13:53.304Z,97865.22
2018-04-26T10:14:57.900Z,97879.05
2018-04-26T10:16:02.582Z,97883.63
2018-04-26T10:17:08.547Z,97863.91
2018-04-26T10:18:13.207Z,97872.86
2018-04-26T10:19:17.946Z,97869.04
2018-04-26T10:20:22.548Z,97853.42
2018-04-26T10:21:27.266Z,97867.78
2018-04-26T10:22:32.737Z,97861.41
2018-04-26T10:23:37.902Z,97854.03
2018-04-26T10:24:42.595Z,97863.05
2018-04-26T10:25:48.106Z,97866.97
2018-04-26T10:26:52.760Z,97861.81
2018-04-26T10:27:58.018Z,97846.86
2018-04-26T10:29:02.954Z,97864.14
2018-04-26T10:30:08.049Z,97838.92
2018-04-26T10:31:12.718Z,97860.96
2018-04-26T10:32:17.404Z,97873.30
2018-04-26T10:33:22.084Z,97845.72
2018-04-26T10:34:26.639Z,97871.28
2018-04-26T10:35:31.351Z,97859.67
2018-04-26T10:36:36.231Z,97863.40
2018-04-26T10:37:41.184Z,97847.00
2018-04-26T10:38:46.481Z,97866.86
2018-04-26T10:39:51.352Z,97800.25
2018-04-26T10:40:55.864Z,97853.36
2018-04-26T10:42:00.463Z,97817.44
2018-04-26T10:43:05.458Z,97837.43
2018-04-26T10:44:10.107Z,97849.65
2018-04-26T10:45:14.692Z,97862.67
2018-04-26T10:46:19.396Z,97867.46
2018-04-26T10:47:23.943Z,97831.99
2018-04-26T10:48:28.644Z,97867.23
2018-04-26T10:49:33.528Z,97860.72
2018-04-26T10:50:38.086Z,97882.64
2018-04-26T10:51:42.916Z,97865.55
2018-04-26T10:52:48.153Z,97853.36
2018-04-26T10:53:52.789Z,97826.66
2018-04-26T10:54:58.124Z,97861.90
2018-04-26T10:56:04.142Z,97912.22
2018-04-26T10:57:08.811Z,97870.50
2018-04-26T10:58:13.333Z,97866.37
2018-04-26T10:59:17.932Z,97872.78
2018-04-26T11:00:22.783Z,97865.80
2018-04-26T11:01:27.729Z,97879.73
2018-04-26T11:02:35.143Z,97868.20
2018-04-26T11:03:39.865Z,97865.05
2018-04-26T11:04:44.576Z,97859.49
2018-04-26T11:05:49.330Z,97858.13
2018-04-26T11:06:53.881Z,97893.37
2018-04-26T11:07:59.431Z,97896.19
2018-04-26T11:09:04.408Z,97915.27
2018-04-26T11:10:08.965Z,97885.56
2018-04-26T11:11:13.670Z,97871.64
2018-04-26T11:12:18.266Z,97903.41
2018-04-26T11:13:22.741Z,97886.01
2018-04-26T11:14:27.666Z,97787.34
2018-04-26T11:15:32.234Z,97904.95
2018-04-26T11:16:36.791Z,97911.14
2018-04-26T11:17:41.330Z,97902.56
2018-04-26T11:18:46.241Z,97892.59
2018-04-26T11:19:50.747Z,97903.02
2018-04-26T11:20:55.337Z,97888.34
2018-04-26T11:21:59.906Z,97895.63
2018-04-26T11:23:04.557Z,97890.81
2018-04-26T11:24:09.242Z,97897.02
2018-04-26T11:25:14.258Z,97899.13
2018-04-26T11:26:19.057Z,97886.23
2018-04-26T11:27:23.727Z,97881.80
2018-04-26T11:28:28.363Z,97900.06
2018-04-26T11:29:33.029Z,97877.38
2018-04-26T11:30:37.720Z,97882.06
2018-04-26T11:31:42.312Z,97906.84
2018-04-26T11:32:47.322Z,97900.25
2018-04-26T11:33:51.882Z,97926.56
2018-04-26T11:34:56.575Z,97908.33
2018-04-26T11:36:01.191Z,97882.66
2018-04-26T11:37:05.827Z,97905.48
2018-04-26T11:38:10.451Z,97865.84
2018-04-26T11:39:15.353Z,97897.35
2018-04-26T11:40:19.912Z,97889.43
2018-04-26T11:41:24.496Z,97866.02
2018-04-26T11:42:29.662Z,97864.64
2018-04-26T11:43:34.200Z,97850.45
2018-04-26T11:44:38.843Z,97882.76
2018-04-26T11:45:44.472Z,97878.45
2018-04-26T11:46:49.328Z,97885.95
2018-04-26T11:47:54.153Z,97888.82
2018-04-26T11:48:59.537Z,97871.17
2018-04-26T11:50:04.468Z,97881.25
2018-04-26T11:51:09.029Z,97855.47
2018-04-26T11:52:15.097Z,97866.66
2018-04-26T11:53:19.652Z,97872.22
2018-04-26T11:54:24.477Z,97867.56
2018-04-26T11:55:30.341Z,97866.52
2018-04-26T11:56:34.949Z,97870.77
2018-04-26T11:57:40.073Z,97864.32
2018-04-26T11:58:45.284Z,97887.52
2018-04-26T11:59:49.861Z,97896.20
2018-04-26T12:00:54.549Z,97887.47
2018-04-26T12:02:00.171Z,97874.47
2018-04-26T12:03:12.782Z,97884.17
2018-04-26T12:04:17.530Z,97891.48
2018-04-26T12:05:22.022Z,97921.30
2018-04-26T12:06:27.264Z,97924.58
2018-04-26T12:07:31.859Z,97880.30
2018-04-26T12:08:37.157Z,97916.58
2018-04-26T12:09:42.188Z,97924.80
2018-04-26T12:10:47.549Z,97921.69
2018-04-26T12:11:53.553Z,97918.55
2018-04-26T12:12:58.120Z,97902.75
2018-04-26T12:14:03.037Z,97920.83
2018-04-26T12:15:08.952Z,97910.03
2018-04-26T12:16:13.968Z,97897.48
2018-04-26T12:17:19.436Z,97917.19
2018-04-26T12:18:23.958Z,97903.98
2018-04-26T12:19:33.359Z,97909.29
2018-04-26T12:20:37.942Z,97912.87
2018-04-26T12:21:42.859Z,97908.89
2018-04-26T12:22:48.816Z,97904.66
2018-04-26T12:23:53.917Z,97902.89
2018-04-26T12:24:58.436Z,97907.23
2018-04-26T12:26:04.287Z,97912.05
2018-04-26T12:27:08.942Z,97895.02
2018-04-26T12:28:14.618Z,97885.28
2018-04-26T12:29:21.413Z,97868.50
2018-04-26T12:30:26.494Z,97882.92
2018-04-26T12:31:32.676Z,97880.39
2018-04-26T12:32:38.348Z,97900.70
2018-04-26T12:33:43.165Z,97873.98
2018-04-26T12:34:48.724Z,97880.42
2018-04-26T12:35:53.935Z,97897.39
2018-04-26T12:36:59.178Z,97898.71
2018-04-26T12:38:04.103Z,97890.51
2018-04-26T12:39:08.774Z,97892.19
2018-04-26T12:40:13.223Z,97879.91
2018-04-26T12:41:18.102Z,97879.84
2018-04-26T12:42:22.745Z,97892.63
2018-04-26T12:43:27.545Z,97875.55